Time;durP1;ratioP1;P1;durP2;ratioP2;P2;SDS_P1;SDS_P2;PMS_P1;PMS_P2;Temp;Humidity;BMP_temperature;BMP_pressure;BME280_temperature;BME280_humidity;BME280_pressure;Samples;Min_cycle;Max_cycle;Signal;HPM_P1;HPM_P2
2024/02/17 00:02:13;;;;;;;;;6.25;3.00;;;;;12.30;57.43;102166.34;5066023;27;45606;-62
2024/02/17 00:04:38;;;;;;;;;8.75;3.00;;;;;12.31;57.25;102178.59;5075114;28;73031;-62
2024/02/17 00:07:04;;;;;;;;;5.75;5.00;;;;;12.31;57.30;102173.34;5068154;28;45469;-63
2024/02/17 00:09:30;;;;;;;;;3.25;2.00;;;;;12.32;57.47;102177.72;5070451;27;45452;-63
2024/02/17 00:11:55;;;;;;;;;9.25;2.00;;;;;12.30;57.39;102182.09;5071206;27;45520;-63
2024/02/17 00:14:20;;;;;;;;;2.50;2.00;;;;;12.31;56.95;102186.47;5080516;27;63100;-62
2024/02/17 00:16:46;;;;;;;;;3.25;1.00;;;;;12.31;56.75;102194.34;5075151;27;45494;-62
2024/02/17 00:19:12;;;;;;;;;4.00;2.00;;;;;12.26;56.72;102190.03;5070086;27;61717;-62
2024/02/17 00:21:37;;;;;;;;;3.00;1.75;;;;;12.26;56.45;102200.53;5070244;27;45425;-62
2024/02/17 00:24:03;;;;;;;;;2.75;1.50;;;;;12.28;56.68;102198.75;5077092;27;45295;-62
2024/02/17 00:26:28;;;;;;;;;4.75;2.00;;;;;12.31;56.62;102199.59;5071147;28;45355;-62
2024/02/17 00:28:54;;;;;;;;;3.00;2.00;;;;;12.32;56.85;102203.06;5078419;27;45429;-63
2024/02/17 00:31:19;;;;;;;;;4.25;3.00;;;;;12.28;57.27;102202.25;5078809;27;51661;-63
2024/02/17 00:33:44;;;;;;;;;3.50;1.50;;;;;12.27;57.21;102199.63;5079830;28;45442;-62
2024/02/17 00:36:10;;;;;;;;;5.25;2.00;;;;;12.29;56.81;102204.00;5074964;27;75645;-64
2024/02/17 00:38:36;;;;;;;;;2.00;2.00;;;;;12.28;56.49;102215.38;5066493;27;45751;-62
2024/02/17 00:41:04;;;;;;;;;3.00;1.00;;;;;12.22;56.44;102201.47;5072044;27;45426;-63
2024/02/17 00:43:29;;;;;;;;;2.50;1.50;;;;;12.24;56.35;102204.94;5085215;27;45468;-62
2024/02/17 00:45:54;;;;;;;;;3.00;2.00;;;;;12.25;56.45;102212.78;5087213;27;45379;-62
2024/02/17 00:48:20;;;;;;;;;1.75;1.00;;;;;12.26;56.03;102213.66;5078083;27;45437;-62
2024/02/17 00:50:45;;;;;;;;;4.50;1.00;;;;;12.26;56.11;102213.66;5075608;27;45445;-62
2024/02/17 00:53:10;;;;;;;;;4.00;1.00;;;;;12.26;56.06;102222.41;5071042;27;45917;-62
2024/02/17 00:55:36;;;;;;;;;3.75;1.75;;;;;12.24;56.08;102220.69;5063602;27;58821;-62
2024/02/17 00:58:02;;;;;;;;;1.00;1.00;;;;;12.22;55.64;102223.31;5070496;28;73414;-62
2024/02/17 01:00:28;;;;;;;;;2.50;1.25;;;;;12.15;55.89;102222.50;5066348;27;45441;-62
2024/02/17 01:02:53;;;;;;;;;2.00;1.00;;;;;12.19;55.78;102225.09;5076235;27;45698;-62
2024/02/17 01:05:18;;;;;;;;;1.50;1.25;;;;;12.21;55.56;102229.44;5069588;27;45318;-63
2024/02/17 01:07:44;;;;;;;;;5.00;2.00;;;;;12.23;55.90;102225.03;5090652;27;72195;-61
2024/02/17 01:10:09;;;;;;;;;4.00;2.25;;;;;12.27;56.17;102237.28;5079205;27;45402;-62
2024/02/17 01:12:35;;;;;;;;;6.75;1.50;;;;;12.28;55.72;102228.50;5074785;27;45282;-63
2024/02/17 01:15:00;;;;;;;;;3.25;3.00;;;;;12.29;56.13;102227.63;5067477;27;69797;-62
2024/02/17 01:17:25;;;;;;;;;2.25;2.00;;;;;12.29;56.16;102232.88;5078475;27;45417;-63
2024/02/17 01:19:51;;;;;;;;;3.00;2.00;;;;;12.33;55.87;102228.47;5073406;27;58989;-62
2024/02/17 01:22:16;;;;;;;;;4.00;2.00;;;;;12.31;55.77;102236.34;5072775;28;55316;-62
2024/02/17 01:24:42;;;;;;;;;6.00;1.75;;;;;12.32;55.72;102234.59;5070233;28;63652;-62
2024/02/17 01:27:08;;;;;;;;;2.25;2.25;;;;;12.31;55.46;102238.09;5072343;27;45445;-62
2024/02/17 01:29:34;;;;;;;;;6.75;2.00;;;;;12.26;55.68;102238.13;5067706;27;45354;-63
2024/02/17 01:31:59;;;;;;;;;6.00;4.00;;;;;12.25;55.68;102244.28;5077439;27;46446;-63
2024/02/17 01:34:25;;;;;;;;;5.75;4.00;;;;;12.27;55.38;102258.28;5061778;28;45675;-63
2024/02/17 01:36:50;;;;;;;;;17.50;12.50;;;;;12.30;55.59;102252.09;5064994;27;73071;-63
2024/02/17 01:39:15;;;;;;;;;35.75;29.00;;;;;12.32;55.90;102255.59;5065635;27;45375;-63
2024/02/17 01:41:41;;;;;;;;;21.75;15.50;;;;;12.32;55.43;102255.59;5076478;27;54459;-63
2024/02/17 01:44:06;;;;;;;;;2.50;2.25;;;;;12.29;55.69;102260.88;5076588;27;46830;-63
2024/02/17 01:46:32;;;;;;;;;2.25;1.75;;;;;12.26;55.13;102269.63;5077235;27;45469;-61
2024/02/17 01:48:57;;;;;;;;;4.00;3.00;;;;;12.23;54.77;102266.19;5072795;27;45304;-62
2024/02/17 01:51:23;;;;;;;;;4.25;2.50;;;;;12.22;54.74;102275.81;5071814;27;73299;-62
2024/02/17 01:53:49;;;;;;;;;5.00;3.00;;;;;12.21;55.25;102274.06;5062087;28;47641;-62
2024/02/17 01:56:17;;;;;;;;;3.50;2.00;;;;;12.22;54.64;102282.81;5060889;28;74136;-62
2024/02/17 01:58:43;;;;;;;;;3.75;2.00;;;;;12.15;55.00;102271.50;5072164;27;45364;-62
2024/02/17 02:01:08;;;;;;;;;4.00;2.00;;;;;12.16;55.27;102273.22;5078442;28;45445;-62
2024/02/17 02:03:35;;;;;;;;;2.00;2.00;;;;;12.18;55.07;102274.06;5071892;27;46082;-62
2024/02/17 02:06:02;;;;;;;;;2.25;2.00;;;;;12.19;55.21;102288.09;5078685;28;45746;-63
2024/02/17 02:08:27;;;;;;;;;3.25;3.00;;;;;12.17;54.63;102289.88;5067965;27;45403;-62
2024/02/17 02:10:54;;;;;;;;;4.50;2.50;;;;;12.14;54.70;102282.88;5068694;27;73435;-62
2024/02/17 02:13:20;;;;;;;;;1.25;1.00;;;;;12.09;54.55;102284.66;5069351;27;47338;-63
2024/02/17 02:15:47;;;;;;;;;4.50;1.00;;;;;12.05;54.67;102291.69;5061490;28;45327;-63
2024/02/17 02:18:12;;;;;;;;;2.00;2.00;;;;;12.05;54.63;102290.81;5067311;27;45458;-62
2024/02/17 02:20:37;;;;;;;;;2.00;1.00;;;;;12.04;54.84;102305.72;5070712;27;45311;-62
2024/02/17 02:23:03;;;;;;;;;3.00;1.25;;;;;12.03;54.37;102303.09;5078558;27;46117;-62
2024/02/17 02:25:29;;;;;;;;;3.50;1.00;;;;;11.96;54.31;102295.25;5060492;27;45473;-63
2024/02/17 02:27:55;;;;;;;;;3.50;1.00;;;;;11.96;54.03;102308.38;5071475;27;60445;-62
2024/02/17 02:30:22;;;;;;;;;2.25;1.75;;;;;11.94;54.14;102306.66;5072273;27;45457;-63
2024/02/17 02:32:48;;;;;;;;;2.50;1.25;;;;;11.95;54.44;102308.38;5063448;27;45448;-62
2024/02/17 02:35:13;;;;;;;;;3.00;3.00;;;;;11.91;54.42;102304.91;5066739;28;45486;-62
2024/02/17 02:37:39;;;;;;;;;1.25;1.00;;;;;11.93;54.62;102304.91;5068531;27;45456;-62
2024/02/17 02:40:05;;;;;;;;;2.25;2.00;;;;;11.99;54.39;102309.22;5063318;27;45383;-62
2024/02/17 02:42:30;;;;;;;;;2.25;1.25;;;;;12.03;54.34;102309.19;5068233;28;45450;-62
2024/02/17 02:44:55;;;;;;;;;4.00;2.00;;;;;12.06;54.53;102303.06;5062073;27;45220;-62
2024/02/17 02:47:21;;;;;;;;;2.75;1.25;;;;;12.10;54.55;102310.03;5071641;27;61195;-62
2024/02/17 02:49:46;;;;;;;;;3.25;1.50;;;;;12.08;54.55;102307.41;5073346;28;45274;-62
2024/02/17 02:52:13;;;;;;;;;3.00;3.00;;;;;12.13;54.39;102310.88;5070709;27;54699;-62
2024/02/17 02:54:38;;;;;;;;;2.75;1.75;;;;;12.14;54.37;102315.22;5064013;28;45493;-62
2024/02/17 02:57:04;;;;;;;;;2.00;2.00;;;;;12.13;54.68;102321.38;5068533;28;45513;-62
2024/02/17 02:59:29;;;;;;;;;4.25;3.00;;;;;12.15;54.94;102311.72;5066910;27;45442;-63
2024/02/17 03:01:54;;;;;;;;;3.00;1.50;;;;;12.22;54.86;102316.94;5071293;27;68112;-62
2024/02/17 03:04:20;;;;;;;;;5.50;1.50;;;;;12.23;54.66;102319.53;5068620;27;45450;-62
2024/02/17 03:06:45;;;;;;;;;3.00;1.25;;;;;12.23;55.05;102314.28;5073714;27;68051;-62
2024/02/17 03:09:12;;;;;;;;;5.25;2.00;;;;;12.22;54.60;102309.06;5071388;27;45486;-62
2024/02/17 03:11:37;;;;;;;;;1.00;1.00;;;;;12.22;54.92;102312.56;5068918;27;46589;-63
2024/02/17 03:14:02;;;;;;;;;1.00;1.00;;;;;12.22;54.64;102311.69;5066485;28;45462;-62
2024/02/17 03:16:29;;;;;;;;;4.00;2.00;;;;;12.21;54.68;102317.81;5068166;27;45366;-63
2024/02/17 03:18:55;;;;;;;;;4.00;1.75;;;;;12.21;54.52;102317.81;5070186;28;45250;-62
2024/02/17 03:21:20;;;;;;;;;4.50;2.00;;;;;12.20;54.52;102318.69;5071556;27;46242;-63
2024/02/17 03:23:45;;;;;;;;;6.25;1.00;;;;;12.18;54.52;102312.59;5069890;28;45518;-63
2024/02/17 03:26:11;;;;;;;;;3.50;1.00;;;;;12.17;54.87;102319.59;5067852;28;55006;-62
2024/02/17 03:28:37;;;;;;;;;2.00;1.25;;;;;12.13;54.77;102323.13;5075891;27;45432;-62
2024/02/17 03:31:02;;;;;;;;;2.00;1.00;;;;;12.11;54.86;102320.53;5068366;27;52346;-63
2024/02/17 03:33:29;;;;;;;;;2.25;1.00;;;;;12.09;54.91;102310.91;5076988;28;45518;-63
2024/02/17 03:35:54;;;;;;;;;1.75;1.75;;;;;12.10;55.24;102316.16;5068538;27;45510;-62
2024/02/17 03:38:19;;;;;;;;;5.00;1.75;;;;;12.08;55.14;102311.81;5074600;27;67113;-63
2024/02/17 03:40:45;;;;;;;;;2.75;2.25;;;;;12.11;54.68;102315.28;5065964;27;45486;-63
2024/02/17 03:43:10;;;;;;;;;1.50;1.00;;;;;12.11;55.27;102320.53;5073650;28;45325;-63
2024/02/17 03:45:35;;;;;;;;;3.25;2.00;;;;;12.13;55.15;102312.63;5066491;27;69266;-63
2024/02/17 03:48:01;;;;;;;;;6.25;2.00;;;;;12.18;54.88;102321.31;5068931;27;71943;-63
2024/02/17 03:50:27;;;;;;;;;5.25;1.00;;;;;12.18;54.96;102316.06;5075353;27;46347;-63
2024/02/17 03:52:52;;;;;;;;;4.00;1.00;;;;;12.17;55.02;102316.97;5070792;27;45289;-64
2024/02/17 03:55:18;;;;;;;;;1.00;1.00;;;;;12.15;55.06;102324.00;5068774;27;45429;-62
2024/02/17 03:57:43;;;;;;;;;1.75;1.00;;;;;12.13;55.06;102321.38;5072180;27;45196;-62
2024/02/17 04:00:13;;;;;;;;;3.50;1.50;;;;;12.13;55.14;102323.13;5066606;27;67910;-63
2024/02/17 04:02:38;;;;;;;;;5.75;2.00;;;;;12.11;55.18;102315.28;5081836;28;45370;-62
2024/02/17 04:05:04;;;;;;;;;2.00;1.00;;;;;12.08;54.82;102323.16;5069015;27;45802;-63
2024/02/17 04:07:29;;;;;;;;;4.00;2.00;;;;;12.10;54.87;102331.88;5074762;28;45506;-62
2024/02/17 04:09:54;;;;;;;;;1.25;1.25;;;;;12.09;55.12;102324.03;5067501;28;75478;-63
2024/02/17 04:12:20;;;;;;;;;2.25;1.00;;;;;12.14;55.39;102340.59;5075881;27;65755;-63
2024/02/17 04:14:46;;;;;;;;;6.75;1.00;;;;;12.15;55.14;102337.97;5063075;27;45324;-62
2024/02/17 04:17:11;;;;;;;;;2.50;1.25;;;;;12.21;55.06;102338.81;5077088;28;45378;-62
2024/02/17 04:19:38;;;;;;;;;3.75;1.00;;;;;12.24;55.41;102346.66;5061729;27;48057;-63
2024/02/17 04:22:04;;;;;;;;;3.50;2.00;;;;;12.25;55.14;102336.16;5070244;27;45730;-62
2024/02/17 04:24:29;;;;;;;;;2.00;0.25;;;;;12.28;54.98;102340.50;5068879;28;45334;-63
2024/02/17 04:26:55;;;;;;;;;1.00;1.00;;;;;12.27;55.07;102338.75;5068606;28;45872;-63
2024/02/17 04:29:20;;;;;;;;;6.00;1.00;;;;;12.26;55.07;102343.13;5077919;27;48303;-62
2024/02/17 04:31:46;;;;;;;;;2.25;1.00;;;;;12.26;55.20;102345.75;5066681;27;45244;-62
2024/02/17 04:34:11;;;;;;;;;2.00;0.50;;;;;12.26;55.04;102358.03;5079506;28;45440;-62
2024/02/17 04:36:36;;;;;;;;;3.25;0.50;;;;;12.26;54.94;102361.50;5074686;28;63818;-63
2024/02/17 04:39:02;;;;;;;;;3.75;1.00;;;;;12.29;55.00;102365.88;5066781;28;63250;-63
2024/02/17 04:41:27;;;;;;;;;1.75;0.75;;;;;12.30;55.09;102357.09;5064663;27;72015;-63
2024/02/17 04:43:52;;;;;;;;;2.00;0.00;;;;;12.32;55.10;102371.97;5071470;28;45475;-63
2024/02/17 04:46:18;;;;;;;;;1.75;1.00;;;;;12.33;55.01;102370.22;5066782;28;70493;-63
2024/02/17 04:48:43;;;;;;;;;3.25;2.00;;;;;12.32;55.01;102381.59;5061905;28;72443;-62
2024/02/17 04:51:08;;;;;;;;;2.25;1.00;;;;;12.31;54.76;102383.34;5071231;27;45445;-63
2024/02/17 04:53:34;;;;;;;;;1.00;1.00;;;;;12.34;54.94;102388.59;5070347;27;47078;-64
2024/02/17 04:55:59;;;;;;;;;4.00;1.00;;;;;12.35;54.31;102387.69;5071314;28;72206;-63
2024/02/17 04:58:24;;;;;;;;;0.00;0.00;;;;;12.34;54.83;102388.59;5066042;28;75764;-63
2024/02/17 05:00:50;;;;;;;;;1.00;1.00;;;;;12.36;54.83;102396.44;5066123;27;73093;-63
2024/02/17 05:03:15;;;;;;;;;3.50;0.50;;;;;12.33;54.95;102392.06;5070875;27;45331;-63
2024/02/17 05:05:42;;;;;;;;;3.00;1.00;;;;;12.35;55.04;102400.81;5068064;28;45464;-63
2024/02/17 05:08:07;;;;;;;;;2.50;1.00;;;;;12.38;55.07;102402.56;5065118;28;47926;-62
2024/02/17 05:10:33;;;;;;;;;4.00;2.00;;;;;12.38;54.78;102399.03;5064789;27;45531;-62
2024/02/17 05:12:58;;;;;;;;;1.00;1.00;;;;;12.39;54.80;102409.53;5067379;28;63201;-63
2024/02/17 05:15:23;;;;;;;;;6.00;0.00;;;;;12.41;54.91;102410.41;5075357;27;68526;-63
2024/02/17 05:17:49;;;;;;;;;1.75;1.00;;;;;12.40;54.79;102413.91;5066922;28;67797;-63
2024/02/17 05:20:14;;;;;;;;;0.00;0.00;;;;;12.41;55.13;102409.53;5069143;28;69063;-62
2024/02/17 05:22:40;;;;;;;;;3.75;1.00;;;;;12.41;54.83;102412.16;5071859;27;45236;-63
2024/02/17 05:25:05;;;;;;;;;3.25;1.00;;;;;12.44;54.70;102417.38;5074632;28;45157;-63
2024/02/17 05:27:31;;;;;;;;;3.25;1.00;;;;;12.45;54.72;102422.63;5065213;28;46468;-63
2024/02/17 05:29:56;;;;;;;;;1.00;1.00;;;;;12.44;54.50;102420.88;5066386;28;69173;-63
2024/02/17 05:32:22;;;;;;;;;1.00;1.00;;;;;12.43;54.36;102424.41;5078240;27;45428;-63
2024/02/17 05:34:47;;;;;;;;;4.00;1.00;;;;;12.43;54.32;102423.50;5078380;27;73161;-63
2024/02/17 05:37:12;;;;;;;;;4.50;1.00;;;;;12.43;54.53;102424.41;5060547;28;64492;-62
2024/02/17 05:39:38;;;;;;;;;2.25;1.00;;;;;12.41;54.92;102426.16;5070054;28;72687;-63
2024/02/17 05:42:03;;;;;;;;;2.75;1.00;;;;;12.43;54.61;102426.13;5073347;27;68302;-63
2024/02/17 05:44:28;;;;;;;;;5.00;1.00;;;;;12.44;54.94;102425.25;5077617;27;56987;-62
2024/02/17 05:46:54;;;;;;;;;1.00;1.00;;;;;12.43;54.80;102432.28;5074965;28;73916;-63
2024/02/17 05:49:22;;;;;;;;;2.00;2.00;;;;;12.43;54.85;102434.00;5063348;28;71905;-62
2024/02/17 05:51:51;;;;;;;;;3.00;2.00;;;;;12.43;54.84;102439.25;5071208;27;45481;-62
2024/02/17 05:54:17;;;;;;;;;2.25;2.00;;;;;12.44;54.64;102422.63;5076515;28;46733;-62
2024/02/17 05:56:43;;;;;;;;;1.50;1.00;;;;;12.42;54.58;102429.66;5067350;27;46205;-63
2024/02/17 05:59:09;;;;;;;;;2.25;1.25;;;;;12.42;54.27;102427.91;5072721;28;45333;-63
2024/02/17 06:01:34;;;;;;;;;2.25;1.25;;;;;12.45;54.56;102440.16;5073233;27;69320;-63
2024/02/17 06:03:59;;;;;;;;;3.75;2.00;;;;;12.47;54.68;102441.88;5061038;28;45307;-63
2024/02/17 06:06:26;;;;;;;;;3.00;2.00;;;;;12.47;54.63;102441.88;5067512;28;73323;-63
2024/02/17 06:08:52;;;;;;;;;3.25;2.75;;;;;12.47;55.23;102441.88;5063044;28;45433;-63
2024/02/17 06:11:17;;;;;;;;;5.00;3.00;;;;;12.46;55.48;102448.00;5069883;28;45343;-63
2024/02/17 06:13:43;;;;;;;;;2.00;1.00;;;;;12.44;55.20;102465.50;5068277;28;45269;-62
2024/02/17 06:16:11;;;;;;;;;3.50;2.50;;;;;12.43;55.48;102462.91;5067816;28;46541;-62
2024/02/17 06:21:22;;;;;;;;;3.75;2.75;;;;;12.42;54.96;102471.66;5072573;27;45420;-62
2024/02/17 06:23:47;;;;;;;;;3.00;1.00;;;;;12.42;55.06;102479.56;5074055;28;45371;-62
2024/02/17 06:26:26;;;;;;;;;4.25;2.00;;;;;12.45;55.47;102484.78;5067249;28;46527;-63
2024/02/17 06:28:53;;;;;;;;;2.50;1.25;;;;;12.47;54.90;102490.91;5065236;28;45403;-63
2024/02/17 06:31:19;;;;;;;;;5.25;2.00;;;;;12.49;55.10;102503.13;5072074;27;45648;-62
2024/02/17 06:33:44;;;;;;;;;3.00;1.25;;;;;12.47;55.23;102506.66;5070583;27;45243;-63
2024/02/17 06:36:10;;;;;;;;;3.00;2.00;;;;;12.46;55.54;102518.03;5066394;27;46207;-63
2024/02/17 06:38:35;;;;;;;;;3.00;1.00;;;;;12.44;54.92;102518.03;5065422;28;45861;-63
2024/02/17 06:41:01;;;;;;;;;2.00;2.00;;;;;12.45;55.39;102525.03;5072678;28;45598;-63
2024/02/17 06:43:26;;;;;;;;;4.00;1.75;;;;;12.46;55.35;102536.41;5071769;27;45653;-63
2024/02/17 06:45:51;;;;;;;;;2.25;2.00;;;;;12.44;55.30;102540.78;5062144;28;51009;-63
2024/02/17 06:48:17;;;;;;;;;3.00;2.75;;;;;12.45;55.00;102534.69;5066383;28;73152;-62
2024/02/17 06:50:42;;;;;;;;;3.50;1.25;;;;;12.43;55.14;102537.31;5075508;27;68271;-62
2024/02/17 06:53:07;;;;;;;;;2.25;1.00;;;;;12.46;55.05;102537.28;5072833;27;72059;-62
2024/02/17 06:55:33;;;;;;;;;2.25;1.75;;;;;12.49;54.97;102544.28;5058385;28;60888;-62
2024/02/17 06:57:58;;;;;;;;;2.25;2.25;;;;;12.51;54.85;102556.50;5069205;28;45431;-63
2024/02/17 07:00:23;;;;;;;;;3.75;1.25;;;;;12.53;54.92;102559.13;5079484;27;45404;-62
2024/02/17 07:02:49;;;;;;;;;1.75;1.00;;;;;12.54;54.65;102566.13;5080065;27;45638;-62
2024/02/17 07:05:15;;;;;;;;;4.00;1.00;;;;;12.55;55.16;102570.47;5068398;28;46023;-63
2024/02/17 07:07:41;;;;;;;;;3.25;1.00;;;;;12.58;54.85;102566.97;5069253;28;45517;-63
2024/02/17 07:10:07;;;;;;;;;1.75;0.50;;;;;12.62;55.22;102571.31;5066105;27;65169;-63
2024/02/17 07:12:34;;;;;;;;;1.00;1.00;;;;;12.65;55.10;102573.94;5070082;27;45545;-63
2024/02/17 07:14:59;;;;;;;;;1.50;0.00;;;;;12.67;55.25;102572.16;5064829;27;47942;-63
2024/02/17 07:17:24;;;;;;;;;2.00;2.00;;;;;12.69;55.00;102573.03;5063662;28;45390;-63
2024/02/17 07:19:50;;;;;;;;;2.00;1.50;;;;;12.73;54.98;102577.41;5063767;28;54434;-63
2024/02/17 07:22:15;;;;;;;;;1.50;1.00;;;;;12.76;54.91;102572.09;5071778;27;68630;-63
2024/02/17 07:24:42;;;;;;;;;3.50;1.50;;;;;12.78;54.95;102577.34;5067747;27;69774;-63
2024/02/17 07:27:08;;;;;;;;;2.75;1.00;;;;;12.81;54.75;102586.09;5063521;28;45925;-63
2024/02/17 07:29:36;;;;;;;;;2.00;2.00;;;;;12.87;54.92;102585.16;5074168;27;44894;-64
2024/02/17 07:32:03;;;;;;;;;2.75;1.00;;;;;12.90;54.60;102585.16;5074539;27;45449;-63
2024/02/17 07:34:31;;;;;;;;;2.50;2.00;;;;;12.94;54.95;102584.25;5066110;28;47397;-63
2024/02/17 07:36:57;;;;;;;;;1.00;1.00;;;;;12.97;54.75;102580.75;5060446;28;45261;-63
2024/02/17 07:39:22;;;;;;;;;4.00;2.00;;;;;13.01;54.49;102590.34;5059575;28;45254;-64
2024/02/17 07:41:47;;;;;;;;;2.00;1.00;;;;;13.04;54.47;102593.81;5071537;28;45252;-63
2024/02/17 07:44:14;;;;;;;;;1.00;0.75;;;;;13.08;54.53;102590.28;5059196;28;47493;-62
2024/02/17 07:46:39;;;;;;;;;1.75;0.25;;;;;13.11;54.94;102589.38;5062863;28;45324;-63
2024/02/17 07:49:05;;;;;;;;;1.00;0.75;;;;;13.18;54.66;102596.34;5058707;28;45386;-63
2024/02/17 07:51:31;;;;;;;;;3.50;1.00;;;;;13.22;54.65;102599.81;5074601;27;45396;-63
2024/02/17 07:53:56;;;;;;;;;2.00;2.00;;;;;13.22;54.03;102595.41;5069912;28;47007;-62
2024/02/17 07:56:22;;;;;;;;;2.00;1.00;;;;;13.29;53.92;102602.38;5065486;28;67929;-63
2024/02/17 07:58:47;;;;;;;;;2.00;1.00;;;;;13.32;54.24;102598.91;5068453;28;45797;-63
2024/02/17 08:01:13;;;;;;;;;2.25;2.00;;;;;13.34;54.35;102609.41;5063411;27;46957;-64
2024/02/17 08:03:38;;;;;;;;;2.75;2.00;;;;;13.34;54.19;102606.78;5063447;28;45636;-62
2024/02/17 08:06:04;;;;;;;;;1.00;1.00;;;;;13.35;54.47;102597.97;5062606;28;45700;-63
2024/02/17 08:08:29;;;;;;;;;3.50;2.00;;;;;13.38;54.52;102609.34;5063922;28;45467;-62
2024/02/17 08:10:55;;;;;;;;;1.75;1.00;;;;;13.41;53.95;102621.59;5068800;28;45534;-63
2024/02/17 08:13:22;;;;;;;;;1.00;1.00;;;;;13.45;53.96;102625.94;5057599;28;46987;-63
2024/02/17 08:15:47;;;;;;;;;2.00;2.00;;;;;13.48;54.25;102626.78;5070482;28;45438;-63
2024/02/17 08:18:12;;;;;;;;;3.50;2.00;;;;;13.54;54.07;102628.50;5062244;28;45450;-63
2024/02/17 08:20:38;;;;;;;;;1.75;1.00;;;;;13.54;53.81;102623.22;5067644;27;66272;-63
2024/02/17 08:23:03;;;;;;;;;2.00;1.25;;;;;13.55;54.05;102626.75;5063355;27;70279;-63
2024/02/17 08:25:29;;;;;;;;;2.75;1.00;;;;;13.57;53.71;102635.50;5058669;28;45283;-63
2024/02/17 08:27:55;;;;;;;;;1.00;1.00;;;;;13.59;54.00;102638.97;5069695;28;59021;-65
2024/02/17 08:30:21;;;;;;;;;1.25;1.00;;;;;13.63;54.06;102654.75;5066784;27;45272;-64
2024/02/17 08:32:46;;;;;;;;;0.50;0.00;;;;;13.66;53.52;102643.31;5072414;27;45934;-63
2024/02/17 08:35:12;;;;;;;;;3.00;1.00;;;;;13.73;53.52;102660.78;5078030;28;45549;-62
2024/02/17 08:37:37;;;;;;;;;2.75;2.00;;;;;13.80;53.82;102658.97;5075139;27;45503;-62
2024/02/17 08:40:04;;;;;;;;;3.00;1.00;;;;;13.86;53.37;102659.78;5067527;27;47202;-63
2024/02/17 08:42:30;;;;;;;;;1.00;1.00;;;;;13.92;53.66;102669.38;5078599;27;45437;-62
2024/02/17 08:44:55;;;;;;;;;1.00;1.00;;;;;13.95;53.27;102673.72;5074533;28;73088;-62
2024/02/17 08:47:22;;;;;;;;;2.25;2.00;;;;;13.97;53.12;102683.38;5070693;27;45224;-63
2024/02/17 08:49:47;;;;;;;;;3.00;1.00;;;;;14.00;53.39;102671.91;5067012;28;45532;-62
2024/02/17 08:52:13;;;;;;;;;2.00;2.00;;;;;14.06;53.17;102679.78;5073708;27;46120;-63
2024/02/17 08:54:38;;;;;;;;;5.25;2.25;;;;;14.09;52.81;102674.44;5067861;28;45389;-63
2024/02/17 08:57:03;;;;;;;;;6.75;3.00;;;;;14.19;52.99;102677.88;5072967;28;61317;-63
2024/02/17 08:59:29;;;;;;;;;4.00;2.00;;;;;14.23;52.94;102679.56;5067531;28;64182;-62
2024/02/17 09:01:54;;;;;;;;;3.00;3.00;;;;;14.28;53.03;102687.44;5077317;27;45480;-64
2024/02/17 09:04:20;;;;;;;;;2.50;2.00;;;;;14.33;52.91;102689.13;5070384;27;72065;-63
2024/02/17 09:06:45;;;;;;;;;2.75;2.00;;;;;14.43;52.77;102697.81;5066207;27;60070;-62
2024/02/17 09:09:10;;;;;;;;;3.25;2.25;;;;;14.50;52.37;102688.94;5069137;27;45244;-63
2024/02/17 09:11:35;;;;;;;;;3.25;3.25;;;;;14.53;52.42;102691.50;5068703;28;72329;-64
2024/02/17 09:14:02;;;;;;;;;5.00;3.00;;;;;14.60;52.31;102687.06;5069239;27;73315;-67
2024/02/17 09:16:28;;;;;;;;;3.25;2.75;;;;;14.63;52.18;102691.47;5074777;27;45331;-64
2024/02/17 09:18:53;;;;;;;;;2.50;2.25;;;;;14.64;51.83;102693.19;5079862;27;48174;-62
2024/02/17 09:21:19;;;;;;;;;6.00;2.25;;;;;14.61;51.62;102692.34;5068350;27;46167;-62
2024/02/17 09:23:44;;;;;;;;;7.25;1.50;;;;;14.55;51.71;102681.81;5067614;27;73256;-61
2024/02/17 09:26:09;;;;;;;;;2.25;1.00;;;;;14.47;51.66;102678.44;5067853;28;47067;-65
2024/02/17 09:28:35;;;;;;;;;2.75;2.00;;;;;14.51;51.92;102692.44;5068522;27;60941;-64
2024/02/17 09:31:00;;;;;;;;;4.00;3.00;;;;;14.51;51.80;102693.28;5071547;27;46940;-64
2024/02/17 09:33:29;;;;;;;;;6.75;4.00;;;;;14.54;52.06;102692.41;5077779;28;68404;-63
2024/02/17 09:35:55;;;;;;;;;10.50;4.25;;;;;14.50;51.90;102682.78;5060452;28;47349;-64
2024/02/17 09:38:21;;;;;;;;;3.75;3.00;;;;;14.49;51.64;102697.72;5065264;28;45348;-65
2024/02/17 09:40:47;;;;;;;;;5.00;1.50;;;;;14.44;51.74;102695.13;5061201;28;45454;-64
2024/02/17 09:43:12;;;;;;;;;10.00;3.00;;;;;14.40;51.80;102696.06;5065874;28;45363;-64
2024/02/17 09:45:38;;;;;;;;;3.00;2.00;;;;;14.41;51.85;102691.66;5060621;28;45394;-65
2024/02/17 09:48:05;;;;;;;;;7.25;2.00;;;;;14.42;51.85;102696.03;5075440;28;73432;-63
2024/02/17 09:50:30;;;;;;;;;3.00;2.00;;;;;14.42;51.67;102694.28;5073101;27;46075;-65
2024/02/17 09:52:56;;;;;;;;;4.25;2.50;;;;;14.39;51.45;102694.31;5077023;28;45796;-65
2024/02/17 09:55:22;;;;;;;;;4.00;2.00;;;;;14.44;51.60;102707.44;5070348;28;45335;-66
2024/02/17 09:57:47;;;;;;;;;5.75;3.00;;;;;14.43;51.92;102698.66;5080310;27;45484;-66
2024/02/17 10:00:14;;;;;;;;;2.00;2.00;;;;;14.41;51.78;102702.19;5078240;27;47022;-67
2024/02/17 10:02:40;;;;;;;;;2.75;2.00;;;;;14.43;51.48;102708.34;5091154;27;45774;-63
2024/02/17 10:05:06;;;;;;;;;4.75;2.00;;;;;14.47;51.83;102703.91;5073723;28;45472;-68
2024/02/17 10:07:31;;;;;;;;;4.75;2.75;;;;;14.52;51.55;102704.69;5060156;28;46891;-64
2024/02/17 10:09:58;;;;;;;;;7.50;2.75;;;;;14.56;51.04;102709.94;5065183;28;46125;-61
2024/02/17 10:12:24;;;;;;;;;5.25;4.25;;;;;14.61;51.41;102717.81;5073049;28;45718;-69
2024/02/17 10:14:52;;;;;;;;;6.75;2.25;;;;;14.67;51.32;102716.88;5069695;27;46785;-68
2024/02/17 10:17:21;;;;;;;;;3.00;1.00;;;;;14.66;51.36;102709.84;5068018;27;49886;-67
2024/02/17 10:19:46;;;;;;;;;2.75;2.00;;;;;14.64;51.17;102704.59;5078289;27;45588;-67
2024/02/17 10:22:13;;;;;;;;;2.50;2.00;;;;;14.70;50.95;102715.06;5071607;27;71726;-65
2024/02/17 10:24:38;;;;;;;;;2.50;1.00;;;;;14.77;50.93;102713.22;5075976;27;45473;-69
2024/02/17 10:27:05;;;;;;;;;7.00;2.00;;;;;14.90;50.89;102722.72;5071112;28;45338;-68
2024/02/17 10:29:31;;;;;;;;;5.00;2.00;;;;;15.03;50.84;102717.28;5064198;27;45421;-75
2024/02/17 10:31:58;;;;;;;;;1.75;1.75;;;;;15.18;50.69;102722.34;5070693;27;45417;-67
2024/02/17 10:34:23;;;;;;;;;3.00;2.00;;;;;15.27;50.55;102716.06;5073796;27;45440;-67
2024/02/17 10:36:51;;;;;;;;;6.50;3.00;;;;;15.34;50.07;102728.25;5070454;27;73163;-68
2024/02/17 10:39:17;;;;;;;;;2.75;2.00;;;;;15.42;50.12;102725.50;5070061;27;46420;-68
2024/02/17 10:41:45;;;;;;;;;2.00;2.00;;;;;15.47;49.98;102731.56;5072186;27;45760;-72
2024/02/17 10:44:10;;;;;;;;;5.00;3.00;;;;;15.47;50.11;102737.72;5082662;27;45693;-73
2024/02/17 10:46:35;;;;;;;;;4.50;3.75;;;;;15.46;49.99;102732.50;5073068;27;45684;-70
2024/02/17 10:49:19;;;;;;;;;6.50;4.00;;;;;15.43;50.02;102735.16;5064392;27;74501;-72
2024/02/17 10:51:56;;;;;;;;;3.00;2.75;;;;;15.49;50.06;102742.97;5069302;27;47204;-63
2024/02/17 10:54:48;;;;;;;;;4.00;3.00;;;;;15.52;49.63;102743.78;5069352;28;45510;-59
2024/02/17 10:57:15;;;;;;;;;4.50;3.00;;;;;15.58;49.50;102753.38;5054675;28;50128;-61
2024/02/17 10:59:43;;;;;;;;;6.00;3.00;;;;;15.64;49.51;102744.53;5064182;28;46443;-60
2024/02/17 11:02:12;;;;;;;;;6.75;2.50;;;;;15.65;48.95;102744.50;5065482;27;45331;-67
2024/02/17 11:04:37;;;;;;;;;4.25;1.75;;;;;15.66;49.03;102738.31;5081103;27;45485;-62
2024/02/17 11:07:03;;;;;;;;;2.00;2.00;;;;;15.67;48.51;102736.53;5070662;28;45390;-62
2024/02/17 11:09:29;;;;;;;;;3.00;2.75;;;;;15.66;48.90;102740.94;5072743;28;46123;-62
2024/02/17 11:11:54;;;;;;;;;7.25;3.00;;;;;15.63;48.54;102745.41;5070988;28;58694;-62
2024/02/17 11:14:39;;;;;;;;;3.25;2.00;;;;;15.56;48.38;102744.63;5061053;28;65465;-61
2024/02/17 11:17:08;;;;;;;;;3.75;2.25;;;;;15.51;48.73;102742.06;5071612;28;47188;-61
2024/02/17 11:19:34;;;;;;;;;3.50;2.00;;;;;15.49;48.48;102738.59;5064945;28;46524;-61
2024/02/17 11:22:05;;;;;;;;;3.50;2.50;;;;;15.52;48.52;102742.94;5065056;27;45412;-62